createdAt,value
2023-01-17T00:02:08.962Z,98544.00
2023-01-17T00:05:30.395Z,98531.63
2023-01-17T00:08:55.960Z,98534.34
2023-01-17T00:12:00.877Z,98541.91
2023-01-17T00:15:05.716Z,98547.19
2023-01-17T00:18:08.601Z,98549.16
2023-01-17T00:21:29.816Z,98547.94
2023-01-17T00:24:50.821Z,98551.50
2023-01-17T00:27:53.532Z,98555.66
2023-01-17T00:30:56.238Z,98568.41
2023-01-17T00:33:59.051Z,98568.59
2023-01-17T00:37:01.759Z,98570.16
2023-01-17T00:40:05.115Z,98579.63
2023-01-17T00:43:26.842Z,98574.75
2023-01-17T00:46:48.141Z,98571.50
2023-01-17T00:50:09.664Z,98569.53
2023-01-17T00:53:30.869Z,98566.28
2023-01-17T00:56:52.100Z,98589.78
2023-01-17T01:00:13.366Z,98603.19
2023-01-17T01:03:35.786Z,98589.72
2023-01-17T01:06:57.442Z,98592.56
2023-01-17T01:10:18.821Z,98598.09
2023-01-17T01:13:44.641Z,98588.84
2023-01-17T01:17:05.982Z,98585.59
2023-01-17T01:20:28.303Z,98593.44
2023-01-17T01:23:49.692Z,98618.19
2023-01-17T01:27:11.144Z,98642.00
2023-01-17T01:30:32.540Z,98661.00
2023-01-17T01:33:35.585Z,98668.59
2023-01-17T01:36:38.372Z,98669.06
2023-01-17T01:39:41.183Z,98665.66
2023-01-17T01:42:54.655Z,98682.91
2023-01-17T01:45:58.843Z,98676.03
2023-01-17T01:49:07.631Z,98677.50
2023-01-17T01:52:11.943Z,98663.50
2023-01-17T01:55:23.134Z,98606.41
2023-01-17T01:58:28.924Z,98551.56
2023-01-17T02:01:32.346Z,98537.81
2023-01-17T02:04:36.347Z,98550.56
2023-01-17T02:07:46.040Z,98560.88
2023-01-17T02:10:49.304Z,98564.56
2023-01-17T02:13:52.191Z,98540.16
2023-01-17T02:17:12.751Z,98548.50
2023-01-17T02:20:49.203Z,98541.28
2023-01-17T02:24:01.105Z,98549.22
2023-01-17T02:27:31.640Z,98535.81
2023-01-17T02:30:39.828Z,98541.19
2023-01-17T02:33:59.070Z,98541.19
2023-01-17T02:37:11.284Z,98526.53
2023-01-17T02:40:20.840Z,98521.28
2023-01-17T02:43:24.867Z,98521.88
2023-01-17T02:46:27.654Z,98511.19
2023-01-17T02:49:32.805Z,98506.56
2023-01-17T02:52:50.878Z,98513.72
2023-01-17T02:56:24.841Z,98518.75
2023-01-17T02:59:44.976Z,98522.78
2023-01-17T03:03:11.823Z,98518.63
2023-01-17T03:06:25.741Z,98516.47
2023-01-17T03:09:31.025Z,98510.44
2023-01-17T03:12:37.293Z,98510.84
2023-01-17T03:15:41.299Z,98519.28
2023-01-17T03:18:44.393Z,98515.84
2023-01-17T03:21:47.149Z,98515.00
2023-01-17T03:24:50.271Z,98507.78
2023-01-17T03:27:53.066Z,98523.88
2023-01-17T03:30:56.148Z,98513.06
2023-01-17T03:33:58.892Z,98515.94
2023-01-17T03:37:01.677Z,98510.81
2023-01-17T03:40:04.971Z,98520.81
2023-01-17T03:43:07.879Z,98520.06
2023-01-17T03:46:25.813Z,98515.25
2023-01-17T03:49:29.356Z,98516.06
2023-01-17T03:52:32.822Z,98526.22
2023-01-17T03:55:35.543Z,98531.34
2023-01-17T03:58:38.247Z,98543.88
2023-01-17T04:01:41.208Z,98552.00
2023-01-17T04:04:44.038Z,98542.72
2023-01-17T04:07:46.760Z,98550.34
2023-01-17T04:10:49.539Z,98539.28
2023-01-17T04:13:52.370Z,98540.28
2023-01-17T04:16:56.298Z,98529.00
2023-01-17T04:19:59.341Z,98531.69
2023-01-17T04:23:02.641Z,98537.59
2023-01-17T04:26:05.746Z,98534.06
2023-01-17T04:29:08.751Z,98531.06
2023-01-17T04:32:11.599Z,98537.53
2023-01-17T04:35:14.456Z,98528.69
2023-01-17T04:38:17.345Z,98530.31
2023-01-17T04:41:20.270Z,98528.66
2023-01-17T04:44:23.049Z,98539.84
2023-01-17T04:47:25.860Z,98544.72
2023-01-17T04:50:28.647Z,98553.53
2023-01-17T04:53:31.837Z,98567.06
2023-01-17T04:56:34.627Z,98558.63
2023-01-17T04:59:37.523Z,98568.31
2023-01-17T05:02:40.610Z,98575.56
2023-01-17T05:05:44.190Z,98576.75
2023-01-17T05:08:47.508Z,98570.28
2023-01-17T05:11:50.578Z,98574.13
2023-01-17T05:14:53.519Z,98573.59
2023-01-17T05:17:56.592Z,98580.72
2023-01-17T05:21:04.098Z,98593.38
2023-01-17T05:24:07.451Z,98609.47
2023-01-17T05:27:11.063Z,98602.44
2023-01-17T05:30:14.242Z,98602.91
2023-01-17T05:33:17.037Z,98608.59
2023-01-17T05:36:21.216Z,98598.13
2023-01-17T05:39:24.351Z,98607.75
2023-01-17T05:42:27.339Z,98610.13
2023-01-17T05:45:32.249Z,98620.34
2023-01-17T05:48:35.567Z,98633.47
2023-01-17T05:51:39.743Z,98635.38
2023-01-17T05:54:42.547Z,98636.59
2023-01-17T05:57:45.778Z,98650.53
2023-01-17T06:00:49.410Z,98651.94
2023-01-17T06:03:52.345Z,98657.16
2023-01-17T06:06:55.167Z,98678.06
2023-01-17T06:09:58.037Z,98679.66
2023-01-17T06:13:16.888Z,98678.03
2023-01-17T06:16:22.189Z,98703.56
2023-01-17T06:19:24.906Z,98716.00
2023-01-17T06:22:29.082Z,98726.25
2023-01-17T06:25:43.724Z,98737.47
2023-01-17T06:28:47.304Z,98745.22
2023-01-17T06:31:50.829Z,98739.13
2023-01-17T06:34:54.958Z,98744.09
2023-01-17T06:37:59.884Z,98747.84
2023-01-17T06:41:06.369Z,98743.41
2023-01-17T06:44:10.059Z,98743.75
2023-01-17T06:47:12.826Z,98750.38
2023-01-17T06:50:16.199Z,98751.81
2023-01-17T06:53:19.151Z,98760.47
2023-01-17T06:56:21.921Z,98747.72
2023-01-17T06:59:25.138Z,98747.91
2023-01-17T07:02:28.022Z,98753.91
2023-01-17T07:05:32.138Z,98745.25
2023-01-17T07:08:41.439Z,98751.28
2023-01-17T07:11:46.232Z,98743.38
2023-01-17T07:14:57.051Z,98755.94
2023-01-17T07:18:02.458Z,98753.16
2023-01-17T07:21:06.180Z,98765.28
2023-01-17T07:24:09.777Z,98760.94
2023-01-17T07:27:21.232Z,98760.94
2023-01-17T07:30:25.548Z,98761.97
2023-01-17T07:33:35.714Z,98772.16
2023-01-17T07:37:10.224Z,98789.38
2023-01-17T07:40:14.078Z,98788.59
2023-01-17T07:43:17.500Z,98795.66
2023-01-17T07:46:20.400Z,98803.56
2023-01-17T07:49:23.526Z,98802.16
2023-01-17T07:52:26.316Z,98790.25
2023-01-17T07:55:29.510Z,98792.56
2023-01-17T07:58:34.017Z,98799.34
2023-01-17T08:01:39.194Z,98801.56
2023-01-17T08:04:42.189Z,98813.97
2023-01-17T08:07:45.035Z,98819.53
2023-01-17T08:10:48.097Z,98817.59
2023-01-17T08:13:57.431Z,98815.75
2023-01-17T08:17:07.889Z,98800.13
2023-01-17T08:20:11.140Z,98803.00
2023-01-17T08:23:15.638Z,98793.81
2023-01-17T08:26:22.720Z,98793.63
2023-01-17T08:29:25.705Z,98806.91
2023-01-17T08:32:31.637Z,98821.66
2023-01-17T08:35:36.246Z,98830.94
2023-01-17T08:38:39.603Z,98816.31
2023-01-17T08:41:42.728Z,98811.06
2023-01-17T08:44:45.783Z,98808.38
2023-01-17T08:47:48.857Z,98802.59
2023-01-17T08:50:51.678Z,98806.53
2023-01-17T08:53:58.215Z,98821.19
2023-01-17T08:57:04.064Z,98822.69
2023-01-17T09:00:07.631Z,98824.47
2023-01-17T09:03:14.782Z,98844.34
2023-01-17T09:06:18.297Z,98842.53
2023-01-17T09:09:24.047Z,98848.91
2023-01-17T09:12:31.773Z,98839.78
2023-01-17T09:15:34.690Z,98846.81
2023-01-17T09:18:37.787Z,98845.47
2023-01-17T09:21:40.998Z,98840.84
2023-01-17T09:24:44.067Z,98830.22
2023-01-17T09:27:47.280Z,98845.41
2023-01-17T09:30:50.795Z,98842.44
2023-01-17T09:33:54.959Z,98830.09
2023-01-17T09:36:58.254Z,98821.91
2023-01-17T09:40:01.077Z,98827.28
2023-01-17T09:43:14.132Z,98836.91
2023-01-17T09:46:24.539Z,98826.09
2023-01-17T09:49:36.138Z,98830.25
2023-01-17T09:52:39.056Z,98822.75
2023-01-17T09:55:50.632Z,98815.47
2023-01-17T09:59:19.222Z,98816.16
2023-01-17T10:02:34.428Z,98808.25
2023-01-17T10:05:40.457Z,98794.34
2023-01-17T10:09:03.965Z,98795.34
2023-01-17T10:12:38.089Z,98789.66
2023-01-17T10:15:47.117Z,98787.97
2023-01-17T10:19:04.068Z,98771.03
2023-01-17T10:22:15.757Z,98752.16
2023-01-17T10:25:43.985Z,98754.94
2023-01-17T10:28:53.186Z,98757.72
2023-01-17T10:31:59.855Z,98753.59
2023-01-17T10:35:16.434Z,98763.53
2023-01-17T10:38:22.372Z,98755.19
2023-01-17T10:41:33.413Z,98747.19
2023-01-17T10:44:48.749Z,98741.78
2023-01-17T10:48:02.023Z,98753.66
2023-01-17T10:51:43.935Z,98771.19
2023-01-17T10:55:14.740Z,98778.47
2023-01-17T10:58:17.848Z,98766.63
2023-01-17T11:01:21.171Z,98766.75
2023-01-17T11:04:40.473Z,98759.81
2023-01-17T11:08:02.482Z,98735.25
2023-01-17T11:11:05.563Z,98736.81
2023-01-17T11:14:18.798Z,98726.94
2023-01-17T11:17:21.816Z,98722.34
2023-01-17T11:20:36.590Z,98694.31
2023-01-17T11:23:47.049Z,98682.31
2023-01-17T11:26:49.876Z,98677.63
2023-01-17T11:30:18.418Z,98675.84
2023-01-17T11:34:10.563Z,98668.75
2023-01-17T11:37:20.751Z,98677.44
2023-01-17T11:40:45.503Z,98681.75
2023-01-17T11:43:58.109Z,98677.53
2023-01-17T11:47:16.188Z,98670.34
2023-01-17T11:50:26.760Z,98658.88
2023-01-17T11:53:37.804Z,98657.75
2023-01-17T11:56:46.253Z,98644.72
2023-01-17T11:59:50.107Z,98649.53
2023-01-17T12:03:15.383Z,98656.16
2023-01-17T12:06:57.936Z,98648.38
2023-01-17T12:10:20.667Z,98638.53
2023-01-17T12:13:56.536Z,98628.94
2023-01-17T12:17:03.530Z,98625.19
2023-01-17T12:20:34.004Z,98620.97
2023-01-17T12:24:03.169Z,98600.06
2023-01-17T12:27:34.749Z,98579.81
2023-01-17T12:30:56.790Z,98576.06
2023-01-17T12:34:26.421Z,98566.34
2023-01-17T12:38:03.806Z,98544.69
2023-01-17T12:41:32.439Z,98535.59
2023-01-17T12:44:44.679Z,98516.47
2023-01-17T12:47:58.208Z,98500.72
2023-01-17T12:51:30.033Z,98477.34
2023-01-17T12:54:41.888Z,98479.16
2023-01-17T12:57:56.675Z,98483.59
2023-01-17T13:01:30.340Z,98473.00
2023-01-17T13:04:57.351Z,98474.84
2023-01-17T13:08:09.783Z,98475.06
2023-01-17T13:11:35.859Z,98464.66
2023-01-17T13:14:38.915Z,98470.41
2023-01-17T13:17:57.056Z,98467.19
2023-01-17T13:21:17.813Z,98459.63
2023-01-17T13:24:42.067Z,98467.56
2023-01-17T13:28:10.125Z,98474.13
2023-01-17T13:31:30.864Z,98455.00
2023-01-17T13:34:41.072Z,98442.22
2023-01-17T13:38:08.609Z,98434.09
2023-01-17T13:41:27.908Z,98430.84
2023-01-17T13:44:32.227Z,98430.63
2023-01-17T13:47:40.792Z,98417.28
2023-01-17T13:50:47.273Z,98424.00
2023-01-17T13:53:50.526Z,98414.59
2023-01-17T13:57:40.208Z,98413.69
2023-01-17T14:00:49.506Z,98391.94
2023-01-17T14:03:52.450Z,98403.22
2023-01-17T14:06:58.028Z,98400.50
2023-01-17T14:10:00.931Z,98401.00
2023-01-17T14:13:05.880Z,98401.50
2023-01-17T14:16:29.759Z,98394.31
2023-01-17T14:19:37.349Z,98385.06
2023-01-17T14:22:48.145Z,98382.88
2023-01-17T14:25:52.301Z,98381.75
2023-01-17T14:28:57.750Z,98371.47
2023-01-17T14:32:04.998Z,98369.06
2023-01-17T14:35:22.488Z,98371.97
2023-01-17T14:38:28.380Z,98357.91
2023-01-17T14:41:32.413Z,98354.22
2023-01-17T14:44:35.253Z,98369.56
2023-01-17T14:47:39.865Z,98354.75
2023-01-17T14:50:44.678Z,98349.47
2023-01-17T14:54:07.910Z,98346.84
2023-01-17T14:57:20.943Z,98337.31
2023-01-17T15:00:25.873Z,98330.47
2023-01-17T15:03:32.243Z,98312.47
2023-01-17T15:06:40.847Z,98305.06
2023-01-17T15:09:44.826Z,98306.91
2023-01-17T15:12:52.515Z,98310.91
2023-01-17T15:16:17.993Z,98294.28
2023-01-17T15:19:23.407Z,98274.94
2023-01-17T15:22:27.059Z,98261.22
2023-01-17T15:25:30.835Z,98256.44
2023-01-17T15:28:35.124Z,98241.88
2023-01-17T15:31:50.262Z,98233.97
2023-01-17T15:34:54.136Z,98221.50
2023-01-17T15:37:58.492Z,98207.78
2023-01-17T15:41:18.099Z,98176.16
2023-01-17T15:44:51.404Z,98160.63
2023-01-17T15:47:54.405Z,98129.78
2023-01-17T15:51:00.584Z,98105.75
2023-01-17T15:54:25.477Z,98099.25
2023-01-17T15:57:31.443Z,98075.56
2023-01-17T16:00:39.407Z,98044.22
2023-01-17T16:03:52.335Z,98035.03
2023-01-17T16:06:55.173Z,98020.56
2023-01-17T16:10:19.655Z,98016.06
2023-01-17T16:13:23.038Z,98007.34
2023-01-17T16:16:27.004Z,98013.19
2023-01-17T16:19:30.040Z,98013.19
2023-01-17T16:22:32.809Z,98012.94
2023-01-17T16:25:35.701Z,97993.13
2023-01-17T16:28:42.818Z,97983.66
2023-01-17T16:31:45.666Z,97978.69
2023-01-17T16:34:48.866Z,97972.38
2023-01-17T16:37:54.054Z,97958.38
2023-01-17T16:40:57.315Z,97950.47
2023-01-17T16:44:03.375Z,97944.91
2023-01-17T16:47:06.163Z,97932.53
2023-01-17T16:50:14.795Z,97924.88
2023-01-17T16:53:24.331Z,97931.28
2023-01-17T16:56:27.696Z,97924.41
2023-01-17T16:59:45.955Z,97914.91
2023-01-17T17:02:53.711Z,97911.78
2023-01-17T17:06:01.344Z,97902.50
2023-01-17T17:09:04.304Z,97905.94
2023-01-17T17:12:08.489Z,97889.06
2023-01-17T17:15:12.531Z,97887.47
2023-01-17T17:18:17.477Z,97878.50
2023-01-17T17:21:20.477Z,97872.19
2023-01-17T17:24:23.319Z,97850.00
2023-01-17T17:27:28.836Z,97847.94
2023-01-17T17:30:33.327Z,97828.16
2023-01-17T17:33:37.129Z,97833.19
2023-01-17T17:36:42.996Z,97819.22
2023-01-17T17:39:46.222Z,97830.03
2023-01-17T17:42:49.742Z,97820.00
2023-01-17T17:45:52.985Z,97829.81
2023-01-17T17:48:57.278Z,97825.31
2023-01-17T17:52:05.084Z,97815.59
2023-01-17T17:55:07.921Z,97820.06
2023-01-17T17:58:10.724Z,97807.94
2023-01-17T18:01:15.057Z,97796.56
2023-01-17T18:04:18.616Z,97809.00
2023-01-17T18:07:21.846Z,97803.78
2023-01-17T18:10:24.671Z,97795.88
2023-01-17T18:13:28.271Z,97792.94
2023-01-17T18:16:36.256Z,97774.69
2023-01-17T18:19:39.432Z,97776.84
2023-01-17T18:22:42.731Z,97773.66
2023-01-17T18:25:45.619Z,97759.91
2023-01-17T18:28:49.086Z,97749.63
2023-01-17T18:31:53.697Z,97754.66
2023-01-17T18:34:56.952Z,97740.63
2023-01-17T18:37:59.832Z,97740.09
2023-01-17T18:41:10.889Z,97736.94
2023-01-17T18:44:14.042Z,97725.56
2023-01-17T18:47:17.044Z,97723.72
2023-01-17T18:50:20.151Z,97712.38
2023-01-17T18:53:23.501Z,97713.97
2023-01-17T18:56:29.723Z,97703.66
2023-01-17T18:59:32.789Z,97709.72
2023-01-17T19:02:35.973Z,97705.75
2023-01-17T19:05:39.110Z,97698.06
2023-01-17T19:08:42.819Z,97700.19
2023-01-17T19:11:47.577Z,97699.09
2023-01-17T19:14:50.763Z,97698.00
2023-01-17T19:17:53.777Z,97699.53
2023-01-17T19:21:08.404Z,97686.88
2023-01-17T19:24:13.517Z,97685.47
2023-01-17T19:27:18.885Z,97698.13
2023-01-17T19:30:22.074Z,97694.94
2023-01-17T19:33:25.254Z,97689.34
2023-01-17T19:36:33.923Z,97690.69
2023-01-17T19:39:36.868Z,97681.41
2023-01-17T19:42:40.851Z,97700.16
2023-01-17T19:45:43.737Z,97705.91
2023-01-17T19:48:46.947Z,97714.41
2023-01-17T19:51:50.421Z,97708.41
2023-01-17T19:54:53.296Z,97718.25
2023-01-17T19:57:56.582Z,97727.25
2023-01-17T20:01:15.452Z,97738.91
2023-01-17T20:04:18.801Z,97752.69
2023-01-17T20:07:23.115Z,97757.44
2023-01-17T20:10:26.034Z,97772.81
2023-01-17T20:13:29.027Z,97764.88
2023-01-17T20:16:33.135Z,97786.28
2023-01-17T20:19:36.999Z,97788.16
2023-01-17T20:22:44.497Z,97803.47
2023-01-17T20:26:03.571Z,97803.78
2023-01-17T20:29:17.596Z,97784.97
2023-01-17T20:32:21.009Z,97765.66
2023-01-17T20:35:24.151Z,97758.03
2023-01-17T20:38:30.193Z,97746.13
2023-01-17T20:41:39.187Z,97752.22
2023-01-17T20:44:42.272Z,97751.97
2023-01-17T20:47:45.465Z,97763.84
2023-01-17T20:50:48.361Z,97765.44
2023-01-17T20:53:54.254Z,97774.69
2023-01-17T20:56:57.015Z,97799.03
2023-01-17T21:00:00.128Z,97812.22
2023-01-17T21:03:03.189Z,97810.94
2023-01-17T21:06:11.409Z,97802.72
2023-01-17T21:09:20.304Z,97786.31
2023-01-17T21:12:23.260Z,97792.69
2023-01-17T21:15:26.343Z,97798.22
2023-01-17T21:18:32.115Z,97818.56
2023-01-17T21:21:35.089Z,97824.66
2023-01-17T21:24:37.856Z,97828.88
2023-01-17T21:27:40.799Z,97834.69
2023-01-17T21:30:43.863Z,97867.16
2023-01-17T21:33:47.822Z,97860.81
2023-01-17T21:36:50.577Z,97875.88
2023-01-17T21:39:54.961Z,97894.03
2023-01-17T21:42:57.844Z,97890.56
2023-01-17T21:46:04.909Z,97897.44
2023-01-17T21:49:10.820Z,97895.56
2023-01-17T21:52:13.688Z,97919.53
2023-01-17T21:55:34.850Z,97947.75
2023-01-17T21:58:43.592Z,97976.47
2023-01-17T22:01:46.574Z,97961.44
2023-01-17T22:04:49.566Z,97911.19
2023-01-17T22:08:11.306Z,97915.88
2023-01-17T22:11:16.463Z,97920.94
2023-01-17T22:14:19.680Z,97942.31
2023-01-17T22:17:22.539Z,97944.63
2023-01-17T22:20:25.450Z,97932.38
2023-01-17T22:23:28.575Z,97936.50
2023-01-17T22:26:31.633Z,97952.06
2023-01-17T22:29:36.554Z,97965.09
2023-01-17T22:32:39.862Z,97968.22
2023-01-17T22:35:42.688Z,97991.47
2023-01-17T22:38:45.623Z,97972.81
2023-01-17T22:41:48.831Z,97985.78
2023-01-17T22:44:51.914Z,97981.69
2023-01-17T22:47:54.726Z,97961.56
2023-01-17T22:51:00.438Z,97967.94
2023-01-17T22:54:04.379Z,97944.50
2023-01-17T22:57:07.252Z,97944.97
2023-01-17T23:00:14.696Z,97955.22
2023-01-17T23:03:17.645Z,97978.19
2023-01-17T23:06:31.992Z,97979.44
2023-01-17T23:09:35.732Z,97992.34
2023-01-17T23:12:38.972Z,98005.22
2023-01-17T23:16:00.198Z,97999.84
2023-01-17T23:19:21.335Z,98010.53
2023-01-17T23:22:27.182Z,98024.16
2023-01-17T23:25:30.029Z,98015.53
2023-01-17T23:28:32.989Z,98005.91
2023-01-17T23:31:36.843Z,98011.56
2023-01-17T23:34:39.688Z,98003.72
2023-01-17T23:38:01.319Z,98005.00
2023-01-17T23:41:27.711Z,97998.75
2023-01-17T23:44:32.028Z,98001.31
2023-01-17T23:47:34.869Z,98005.16
2023-01-17T23:50:45.980Z,98024.16
2023-01-17T23:53:48.887Z,98058.69
2023-01-17T23:56:51.638Z,98079.75
2023-01-17T23:59:54.490Z,98088.38
